Aviation Digital Data Service (ADDS)

Output produced by METARs form (1119 UTC 21 April 2021)
found at http://www.aviationweather.gov/metar/data/
 
KEWR 211051Z 19008KT 10SM SCT085 BKN110 BKN250 15/04 A2973 RMK AO2 SLP068 T01500039
KEWR 210848Z 2109/2212 19010KT P6SM SCT080 SCT250 
     FM211400 19014G22KT P6SM BKN060 
     FM211800 20017G25KT 5SM -SHRA BKN040 
     TEMPO 2119/2121 26025G40KT 2SM TSRA OVC035CB 
     FM212100 30024G33KT P6SM SCT050 SCT100 
     FM220700 28020G30KT P6SM SCT050
       
KABE 211051Z AUTO 10004KT 10SM FEW110 12/06 A2970 RMK AO2 SLP057 T01170061 $
KABE 210523Z 2106/2206 18009KT P6SM SCT100 BKN250 WS020/20040KT 
     FM211200 20010G17KT P6SM SCT070 BKN100 
     FM211700 24013G22KT 6SM -SHRA VCTS SCT035CB OVC050 
     FM211900 31017G27KT P6SM SCT025 BKN040 
     FM220300 30010G18KT P6SM SCT045
       
KTTN 211053Z 17009KT 10SM BKN100 13/05 A2972 RMK AO2 SLP056 T01280050
KTTN 210523Z 2106/2206 17006KT P6SM FEW100 SCT250 WS020/21040KT 
     FM211200 19010G17KT P6SM SCT080 BKN120 
     FM211700 23015G24KT 6SM -SHRA VCTS SCT035CB OVC050 
     TEMPO 2117/2119 3SM TSRA BKN025CB 
     FM211900 32015G28KT P6SM SCT025 BKN040 
     FM220200 30012G19KT P6SM SCT050
       
KMPO 211053Z AUTO 11006KT 10SM BKN095 06/03 A2969 RMK AO2 SLP053 T00560028
KAVP 211054Z 23003KT 10SM CLR 04/03 A2969 RMK AO2 SLP053 T00440028
KAVP 210524Z 2106/2206 VRB05KT P6SM BKN035 
     FM211100 20009KT P6SM BKN025 
     FM211400 28010G16KT 5SM -SHRA BR OVC015 
     TEMPO 2116/2119 -TSRA BKN025CB 
     FM212200 32012G22KT P6SM -RASN OVC030 
     FM220200 31010KT P6SM -SHSN OVC040